createdAt,value
2023-05-24T00:00:33.814Z,94.48
2023-05-24T00:03:22.047Z,94.37
2023-05-24T00:05:50.469Z,93.97
2023-05-24T00:08:18.474Z,94.23
2023-05-24T00:10:46.878Z,94.05
2023-05-24T00:13:15.612Z,93.19
2023-05-24T00:15:43.586Z,93.08
2023-05-24T00:18:11.577Z,93.11
2023-05-24T00:20:40.118Z,94.57
2023-05-24T00:23:08.289Z,93.63
2023-05-24T00:25:36.346Z,93.18
2023-05-24T00:28:04.290Z,93.34
2023-05-24T00:30:32.164Z,93.33
2023-05-24T00:32:59.606Z,92.80
2023-05-24T00:35:27.801Z,94.57
2023-05-24T00:37:55.596Z,94.10
2023-05-24T00:40:23.497Z,94.42
2023-05-24T00:42:51.234Z,93.93
2023-05-24T00:45:19.838Z,94.97
2023-05-24T00:47:47.900Z,95.07
2023-05-24T00:50:17.402Z,96.99
2023-05-24T00:52:45.878Z,98.57
2023-05-24T00:55:14.555Z,95.84
2023-05-24T00:57:42.476Z,95.66
2023-05-24T01:00:11.997Z,95.31
2023-05-24T01:02:40.924Z,94.35
2023-05-24T01:05:13.819Z,94.90
2023-05-24T01:08:01.215Z,96.36
2023-05-24T01:10:59.019Z,97.04
2023-05-24T01:13:47.855Z,99.82
2023-05-24T01:16:26.339Z,100.00
2023-05-24T01:19:05.023Z,100.00
2023-05-24T01:21:48.608Z,100.00
2023-05-24T01:24:54.079Z,100.00
2023-05-24T01:27:23.687Z,100.00
2023-05-24T01:29:53.721Z,100.00
2023-05-24T01:32:22.849Z,100.00
2023-05-24T01:34:50.809Z,100.00
2023-05-24T01:37:18.823Z,100.00
2023-05-24T01:39:47.230Z,100.00
2023-05-24T01:43:11.233Z,100.00
2023-05-24T01:45:45.747Z,100.00
2023-05-24T01:48:20.517Z,100.00
2023-05-24T01:51:03.813Z,100.00
2023-05-24T01:53:38.570Z,100.00
2023-05-24T01:56:06.933Z,100.00
2023-05-24T01:58:36.752Z,100.00
2023-05-24T02:01:05.890Z,100.00
2023-05-24T02:03:34.270Z,100.00
2023-05-24T02:06:03.513Z,100.00
2023-05-24T02:08:31.417Z,100.00
2023-05-24T02:10:59.174Z,100.00
2023-05-24T02:13:27.373Z,100.00
2023-05-24T02:15:55.349Z,100.00
2023-05-24T02:18:23.202Z,100.00
2023-05-24T02:20:50.928Z,100.00
2023-05-24T02:23:19.614Z,100.00
2023-05-24T02:25:47.551Z,100.00
2023-05-24T02:28:16.009Z,100.00
2023-05-24T02:30:45.211Z,100.00
2023-05-24T02:33:13.503Z,100.00
2023-05-24T02:35:41.657Z,100.00
2023-05-24T02:38:10.226Z,100.00
2023-05-24T02:40:38.049Z,100.00
2023-05-24T02:43:06.467Z,100.00
2023-05-24T02:45:34.412Z,100.00
2023-05-24T02:48:02.931Z,100.00
2023-05-24T02:50:30.721Z,100.00
2023-05-24T02:52:59.209Z,100.00
2023-05-24T02:55:27.113Z,100.00
2023-05-24T02:57:55.767Z,100.00
2023-05-24T03:00:25.433Z,100.00
2023-05-24T03:03:00.983Z,100.00
2023-05-24T03:05:28.912Z,100.00
2023-05-24T03:07:57.357Z,100.00
2023-05-24T03:10:25.179Z,100.00
2023-05-24T03:12:53.050Z,100.00
2023-05-24T03:15:21.241Z,100.00
2023-05-24T03:17:49.705Z,100.00
2023-05-24T03:20:18.042Z,100.00
2023-05-24T03:22:47.117Z,100.00
2023-05-24T03:25:14.945Z,100.00
2023-05-24T03:27:43.477Z,100.00
2023-05-24T03:30:12.123Z,100.00
2023-05-24T03:32:51.827Z,100.00
2023-05-24T03:35:20.637Z,100.00
2023-05-24T03:37:50.110Z,100.00
2023-05-24T03:40:18.765Z,100.00
2023-05-24T03:42:57.261Z,100.00
2023-05-24T03:45:41.800Z,100.00
2023-05-24T03:48:09.872Z,100.00
2023-05-24T03:50:37.564Z,100.00
2023-05-24T03:53:05.898Z,100.00
2023-05-24T03:55:33.635Z,100.00
2023-05-24T03:58:02.301Z,100.00
2023-05-24T04:00:30.292Z,100.00
2023-05-24T04:02:58.699Z,100.00
2023-05-24T04:05:30.224Z,100.00
2023-05-24T04:07:58.810Z,100.00
2023-05-24T04:10:26.780Z,100.00
2023-05-24T04:12:57.296Z,100.00
2023-05-24T04:15:25.304Z,100.00
2023-05-24T04:17:55.366Z,100.00
2023-05-24T04:20:28.185Z,100.00
2023-05-24T04:22:56.507Z,100.00
2023-05-24T04:25:24.804Z,100.00
2023-05-24T04:27:52.718Z,100.00
2023-05-24T04:30:21.631Z,100.00
2023-05-24T04:32:52.985Z,100.00
2023-05-24T04:35:21.596Z,100.00
2023-05-24T04:37:50.551Z,100.00
2023-05-24T04:40:21.312Z,100.00
2023-05-24T04:42:51.245Z,100.00
2023-05-24T04:45:19.236Z,100.00
2023-05-24T04:47:47.583Z,99.49
2023-05-24T04:50:15.253Z,99.75
2023-05-24T04:52:43.316Z,99.79
2023-05-24T04:55:10.900Z,95.65
2023-05-24T04:57:39.287Z,96.66
2023-05-24T05:00:08.233Z,95.66
2023-05-24T05:02:36.258Z,94.42
2023-05-24T05:05:04.567Z,93.00
2023-05-24T05:07:32.528Z,89.58
2023-05-24T05:10:00.320Z,89.56
2023-05-24T05:12:28.531Z,91.09
2023-05-24T05:14:56.583Z,91.28
2023-05-24T05:17:24.473Z,92.34
2023-05-24T05:19:52.212Z,90.97
2023-05-24T05:22:20.784Z,88.51
2023-05-24T05:24:48.629Z,88.27
2023-05-24T05:27:16.677Z,85.96
2023-05-24T05:29:44.532Z,87.14
2023-05-24T05:32:12.811Z,84.85
2023-05-24T05:34:41.268Z,85.79
2023-05-24T05:37:09.756Z,84.45
2023-05-24T05:39:37.374Z,86.70
2023-05-24T05:42:06.105Z,84.18
2023-05-24T05:44:33.933Z,84.00
2023-05-24T05:47:03.997Z,81.00
2023-05-24T05:49:33.265Z,78.37
2023-05-24T05:52:01.936Z,75.87
2023-05-24T05:54:31.544Z,75.57
2023-05-24T05:57:01.692Z,73.69
2023-05-24T05:59:29.936Z,68.82
2023-05-24T06:01:58.260Z,73.96
2023-05-24T06:04:26.070Z,73.68
2023-05-24T06:06:54.423Z,74.37
2023-05-24T06:09:22.288Z,76.69
2023-05-24T06:11:50.646Z,78.92
2023-05-24T06:14:20.331Z,77.58
2023-05-24T06:16:48.984Z,73.59
2023-05-24T06:19:17.381Z,70.02
2023-05-24T06:21:49.013Z,72.77
2023-05-24T06:24:21.745Z,72.21
2023-05-24T06:26:51.964Z,70.55
2023-05-24T06:29:21.298Z,69.73
2023-05-24T06:31:50.622Z,67.99
2023-05-24T06:34:21.760Z,67.51
2023-05-24T06:36:51.814Z,66.09
2023-05-24T06:39:19.901Z,62.66
2023-05-24T06:41:51.404Z,63.89
2023-05-24T06:44:32.193Z,61.56
2023-05-24T06:47:04.824Z,62.34
2023-05-24T06:49:33.383Z,66.02
2023-05-24T06:52:02.092Z,59.78
2023-05-24T06:54:30.000Z,62.86
2023-05-24T06:56:59.455Z,57.43
2023-05-24T06:59:27.500Z,57.55
2023-05-24T07:02:00.073Z,57.99
2023-05-24T07:04:30.061Z,55.50
2023-05-24T07:06:58.668Z,54.34
2023-05-24T07:09:27.088Z,54.54
2023-05-24T07:11:55.604Z,62.18
2023-05-24T07:14:24.476Z,56.49
2023-05-24T07:16:52.897Z,48.89
2023-05-24T07:19:22.226Z,48.83
2023-05-24T07:21:50.752Z,48.98
2023-05-24T07:24:18.564Z,47.06
2023-05-24T07:26:47.154Z,48.24
2023-05-24T07:29:15.214Z,47.53
2023-05-24T07:31:43.763Z,51.24
2023-05-24T07:34:11.757Z,50.78
2023-05-24T07:36:41.595Z,52.61
2023-05-24T07:39:16.132Z,47.58
2023-05-24T07:41:45.186Z,49.02
2023-05-24T07:44:13.722Z,50.44
2023-05-24T07:46:42.236Z,51.28
2023-05-24T07:49:10.112Z,49.78
2023-05-24T07:51:39.599Z,51.30
2023-05-24T07:54:07.463Z,50.11
2023-05-24T07:56:36.817Z,47.97
2023-05-24T07:59:05.049Z,45.50
2023-05-24T08:01:38.246Z,46.65
2023-05-24T08:04:06.254Z,44.01
2023-05-24T08:06:35.157Z,53.98
2023-05-24T08:09:04.697Z,44.76
2023-05-24T08:11:33.249Z,45.51
2023-05-24T08:14:01.922Z,47.71
2023-05-24T08:16:32.462Z,45.01
2023-05-24T08:19:00.352Z,43.32
2023-05-24T08:21:29.413Z,46.99
2023-05-24T08:23:57.810Z,43.37
2023-05-24T08:26:26.764Z,43.00
2023-05-24T08:28:55.399Z,42.88
2023-05-24T08:31:24.194Z,42.82
2023-05-24T08:33:53.057Z,41.49
2023-05-24T08:36:20.896Z,39.91
2023-05-24T08:38:48.738Z,40.54
2023-05-24T08:41:16.891Z,40.81
2023-05-24T08:43:45.103Z,43.19
2023-05-24T08:46:15.196Z,40.57
2023-05-24T08:48:47.723Z,40.16
2023-05-24T08:51:16.931Z,40.04
2023-05-24T08:53:49.222Z,40.08
2023-05-24T08:56:19.022Z,41.36
2023-05-24T08:58:47.709Z,40.16
2023-05-24T09:01:17.505Z,40.37
2023-05-24T09:03:49.037Z,42.35
2023-05-24T09:06:18.796Z,41.74
2023-05-24T09:08:46.763Z,42.84
2023-05-24T09:11:16.696Z,43.12
2023-05-24T09:13:48.501Z,41.33
2023-05-24T09:16:17.423Z,42.11
2023-05-24T09:18:45.232Z,47.00
2023-05-24T09:21:14.160Z,45.03
2023-05-24T09:23:42.540Z,41.78
2023-05-24T09:26:11.599Z,39.96
2023-05-24T09:28:41.948Z,45.75
2023-05-24T09:31:10.290Z,43.37
2023-05-24T09:33:39.655Z,44.24
2023-05-24T09:36:08.887Z,43.99
2023-05-24T09:38:37.373Z,42.52
2023-05-24T09:41:08.619Z,42.31
2023-05-24T09:43:48.922Z,46.04
2023-05-24T09:46:19.712Z,40.55
2023-05-24T09:49:04.218Z,42.27
2023-05-24T09:51:33.180Z,43.89
2023-05-24T09:54:02.786Z,44.58
2023-05-24T09:56:33.830Z,44.96
2023-05-24T09:59:10.856Z,45.59
2023-05-24T10:01:39.591Z,46.62
2023-05-24T10:04:10.288Z,48.48
2023-05-24T10:06:40.243Z,47.84
2023-05-24T10:09:09.872Z,50.29
2023-05-24T10:11:38.142Z,49.36
2023-05-24T10:14:07.961Z,47.09
2023-05-24T10:16:38.453Z,48.68
2023-05-24T10:19:07.581Z,49.14
2023-05-24T10:21:39.346Z,48.96
2023-05-24T10:24:09.188Z,52.54
2023-05-24T10:26:38.812Z,52.68
2023-05-24T10:29:10.075Z,52.93
2023-05-24T10:31:39.881Z,50.56
2023-05-24T10:34:09.226Z,50.00
2023-05-24T10:36:40.613Z,51.81
2023-05-24T10:39:12.276Z,52.09
2023-05-24T10:41:42.418Z,57.27
2023-05-24T10:44:14.816Z,55.80
2023-05-24T10:47:04.091Z,56.64
2023-05-24T10:49:32.358Z,60.03
2023-05-24T10:52:09.304Z,58.49
2023-05-24T10:54:41.141Z,59.29
2023-05-24T10:57:13.429Z,55.60
2023-05-24T10:59:44.776Z,55.48
2023-05-24T11:02:17.039Z,56.30
2023-05-24T11:04:49.760Z,58.27
2023-05-24T11:07:19.633Z,54.79
2023-05-24T11:09:57.287Z,56.12
2023-05-24T11:12:32.832Z,61.44
2023-05-24T11:15:03.409Z,57.91
2023-05-24T11:17:32.154Z,58.58
2023-05-24T11:20:05.406Z,58.55
2023-05-24T11:22:34.023Z,56.49
2023-05-24T11:25:06.245Z,57.14
2023-05-24T11:27:35.714Z,60.27
2023-05-24T11:30:04.588Z,55.31
2023-05-24T11:32:33.903Z,56.50
2023-05-24T11:35:02.113Z,56.51
2023-05-24T11:37:42.546Z,58.68
2023-05-24T11:40:15.184Z,59.07
2023-05-24T11:42:44.657Z,52.49
2023-05-24T11:45:13.912Z,55.83
2023-05-24T11:47:42.167Z,54.09
2023-05-24T11:50:10.817Z,52.46
2023-05-24T11:52:41.971Z,53.66
2023-05-24T11:55:16.405Z,55.85
2023-05-24T11:57:50.315Z,53.12
2023-05-24T12:00:25.606Z,51.65
2023-05-24T12:02:57.439Z,51.62
2023-05-24T12:05:25.502Z,51.95
2023-05-24T12:08:06.602Z,51.28
2023-05-24T12:10:39.147Z,51.77
2023-05-24T12:13:13.838Z,55.07
2023-05-24T12:15:41.755Z,53.80
2023-05-24T12:18:23.448Z,53.11
2023-05-24T12:20:51.935Z,51.89
2023-05-24T12:23:22.055Z,52.88
2023-05-24T12:25:50.401Z,57.33
2023-05-24T12:28:22.138Z,56.11
2023-05-24T12:30:50.566Z,54.28
2023-05-24T12:33:21.940Z,59.47
2023-05-24T12:35:50.324Z,55.85
2023-05-24T12:38:25.908Z,57.11
2023-05-24T12:43:28.057Z,58.10
2023-05-24T12:45:56.109Z,53.66
2023-05-24T12:48:24.520Z,54.81
2023-05-24T12:50:52.474Z,55.12
2023-05-24T12:53:24.241Z,57.02
2023-05-24T12:55:55.972Z,58.94
2023-05-24T12:58:24.300Z,58.96
2023-05-24T13:00:52.373Z,57.78
2023-05-24T13:03:20.500Z,60.36
2023-05-24T13:05:52.004Z,58.74
2023-05-24T13:08:22.328Z,57.90
2023-05-24T13:10:51.159Z,57.41
2023-05-24T13:13:19.728Z,55.68
2023-05-24T13:15:47.510Z,57.87
2023-05-24T13:18:16.385Z,58.50
2023-05-24T13:20:44.502Z,53.62
2023-05-24T13:23:13.551Z,55.75
2023-05-24T13:25:41.528Z,56.75
2023-05-24T13:28:10.170Z,54.50
2023-05-24T13:30:38.891Z,55.43
2023-05-24T13:33:07.407Z,53.49
2023-05-24T13:35:35.309Z,53.80
2023-05-24T13:38:04.092Z,54.54
2023-05-24T13:40:32.201Z,54.25
2023-05-24T13:42:59.772Z,53.38
2023-05-24T13:45:28.084Z,49.82
2023-05-24T13:48:03.922Z,49.56
2023-05-24T13:50:34.288Z,49.93
2023-05-24T13:53:04.141Z,50.15
2023-05-24T13:55:34.701Z,50.62
2023-05-24T13:58:05.208Z,50.11
2023-05-24T14:00:33.573Z,48.32
2023-05-24T14:03:02.278Z,47.89
2023-05-24T14:05:31.236Z,48.94
2023-05-24T14:08:06.811Z,45.54
2023-05-24T14:10:37.294Z,44.96
2023-05-24T14:15:38.169Z,41.84
2023-05-24T14:18:08.711Z,41.24
2023-05-24T14:20:38.148Z,42.01
2023-05-24T14:23:10.400Z,42.27
2023-05-24T14:25:38.263Z,42.94
2023-05-24T14:28:08.945Z,43.90
2023-05-24T14:30:38.201Z,47.24
2023-05-24T14:33:08.720Z,50.79
2023-05-24T14:35:40.254Z,51.13
2023-05-24T14:38:10.801Z,50.34
2023-05-24T14:40:40.409Z,51.30
2023-05-24T14:43:11.108Z,55.50
2023-05-24T14:45:44.072Z,59.50
2023-05-24T14:48:13.169Z,67.84
2023-05-24T14:50:42.166Z,72.71
2023-05-24T14:53:12.988Z,75.55
2023-05-24T14:55:43.489Z,76.62
2023-05-24T14:58:13.258Z,75.26
2023-05-24T15:00:43.038Z,73.89
2023-05-24T15:03:13.091Z,72.84
2023-05-24T15:05:42.688Z,71.64
2023-05-24T15:08:11.874Z,71.11
2023-05-24T15:10:39.859Z,71.75
2023-05-24T15:13:08.553Z,73.34
2023-05-24T15:15:36.895Z,76.81
2023-05-24T15:18:05.134Z,79.06
2023-05-24T15:20:35.657Z,80.81
2023-05-24T15:23:04.721Z,83.37
2023-05-24T15:25:32.718Z,86.08
2023-05-24T15:28:01.821Z,85.82
2023-05-24T15:30:30.297Z,84.97
2023-05-24T15:32:58.547Z,79.31
2023-05-24T15:35:27.088Z,75.56
2023-05-24T15:37:55.713Z,80.07
2023-05-24T15:40:24.941Z,87.39
2023-05-24T15:42:53.367Z,88.15
2023-05-24T15:45:21.895Z,90.38
2023-05-24T15:47:50.273Z,96.95
2023-05-24T15:50:23.611Z,99.27
2023-05-24T15:52:54.103Z,98.25
2023-05-24T15:55:22.344Z,97.98
2023-05-24T15:57:50.636Z,100.00
2023-05-24T16:00:18.802Z,100.00
2023-05-24T16:02:47.606Z,100.00
2023-05-24T16:05:16.334Z,100.00
2023-05-24T16:07:45.126Z,100.00
2023-05-24T16:10:13.402Z,100.00
2023-05-24T16:12:42.353Z,100.00
2023-05-24T16:15:11.007Z,100.00
2023-05-24T16:17:39.545Z,100.00
2023-05-24T16:20:08.088Z,100.00
2023-05-24T16:22:37.414Z,100.00
2023-05-24T16:25:06.090Z,100.00
2023-05-24T16:27:34.681Z,100.00
2023-05-24T16:30:03.288Z,100.00
2023-05-24T16:32:31.563Z,100.00
2023-05-24T16:34:59.492Z,100.00
2023-05-24T16:37:27.725Z,100.00
2023-05-24T16:39:56.116Z,100.00
2023-05-24T16:42:24.216Z,100.00
2023-05-24T16:44:52.030Z,100.00
2023-05-24T16:47:20.329Z,100.00
2023-05-24T16:49:48.270Z,100.00
2023-05-24T16:52:16.746Z,100.00
2023-05-24T16:54:44.868Z,100.00
2023-05-24T16:57:13.406Z,100.00
2023-05-24T16:59:42.789Z,100.00
2023-05-24T17:02:10.857Z,100.00
2023-05-24T17:04:38.865Z,100.00
2023-05-24T17:07:07.198Z,100.00
2023-05-24T17:09:35.220Z,100.00
2023-05-24T17:12:04.002Z,100.00
2023-05-24T17:14:32.364Z,100.00
2023-05-24T17:17:00.871Z,100.00
2023-05-24T17:19:28.836Z,100.00
2023-05-24T17:21:57.584Z,100.00
2023-05-24T17:24:28.275Z,100.00
2023-05-24T17:26:57.072Z,100.00
2023-05-24T17:29:26.855Z,100.00
2023-05-24T17:31:55.566Z,100.00
2023-05-24T17:34:23.590Z,100.00
2023-05-24T17:36:52.000Z,100.00
2023-05-24T17:39:21.670Z,100.00
2023-05-24T17:41:49.965Z,100.00
2023-05-24T17:44:17.455Z,100.00
2023-05-24T17:46:45.981Z,100.00
2023-05-24T17:49:14.656Z,100.00
2023-05-24T17:51:43.356Z,100.00
2023-05-24T17:54:11.410Z,100.00
2023-05-24T17:56:39.862Z,100.00
2023-05-24T17:59:07.886Z,100.00
2023-05-24T18:01:36.692Z,100.00
2023-05-24T18:04:06.223Z,100.00
2023-05-24T18:06:37.668Z,100.00
2023-05-24T18:09:05.527Z,100.00
2023-05-24T18:11:33.705Z,100.00
2023-05-24T18:14:03.827Z,100.00
2023-05-24T18:16:32.190Z,100.00
2023-05-24T18:18:59.900Z,100.00
2023-05-24T18:21:28.548Z,100.00
2023-05-24T18:23:56.442Z,100.00
2023-05-24T18:26:24.747Z,100.00
2023-05-24T18:28:52.771Z,100.00
2023-05-24T18:31:22.178Z,100.00
2023-05-24T18:33:50.658Z,100.00
2023-05-24T18:36:19.149Z,100.00
2023-05-24T18:38:47.604Z,100.00
2023-05-24T18:41:16.900Z,100.00
2023-05-24T18:43:45.535Z,100.00
2023-05-24T18:46:15.446Z,100.00
2023-05-24T18:48:44.082Z,100.00
2023-05-24T18:51:12.503Z,100.00
2023-05-24T18:53:40.905Z,100.00
2023-05-24T18:56:09.289Z,100.00
2023-05-24T18:58:37.461Z,100.00
2023-05-24T19:01:06.078Z,100.00
2023-05-24T19:03:34.093Z,100.00
2023-05-24T19:06:02.366Z,100.00
2023-05-24T19:08:30.117Z,100.00
2023-05-24T19:10:58.742Z,100.00
2023-05-24T19:13:27.902Z,100.00
2023-05-24T19:15:57.057Z,100.00
2023-05-24T19:18:24.915Z,100.00
2023-05-24T19:20:53.710Z,100.00
2023-05-24T19:23:21.590Z,100.00
2023-05-24T19:25:50.883Z,100.00
2023-05-24T19:28:19.090Z,100.00
2023-05-24T19:30:47.310Z,100.00
2023-05-24T19:33:15.329Z,100.00
2023-05-24T19:35:44.454Z,100.00
2023-05-24T19:38:12.654Z,100.00
2023-05-24T19:40:41.123Z,100.00
2023-05-24T19:43:09.082Z,100.00
2023-05-24T19:45:37.593Z,100.00
2023-05-24T19:48:07.307Z,100.00
2023-05-24T19:50:36.563Z,100.00
2023-05-24T19:53:04.673Z,100.00
2023-05-24T19:55:33.159Z,100.00
2023-05-24T19:58:00.970Z,100.00
2023-05-24T20:00:29.302Z,100.00
2023-05-24T20:02:57.577Z,100.00
2023-05-24T20:05:26.289Z,100.00
2023-05-24T20:07:54.376Z,100.00
2023-05-24T20:10:23.286Z,100.00
2023-05-24T20:12:51.313Z,100.00
2023-05-24T20:15:19.551Z,100.00
2023-05-24T20:17:48.927Z,100.00
2023-05-24T20:20:17.645Z,100.00
2023-05-24T20:22:45.630Z,100.00
2023-05-24T20:25:14.362Z,100.00
2023-05-24T20:27:42.797Z,100.00
2023-05-24T20:30:12.167Z,100.00
2023-05-24T20:32:40.195Z,100.00
2023-05-24T20:35:09.781Z,100.00
2023-05-24T20:37:38.256Z,100.00
2023-05-24T20:40:07.840Z,100.00
2023-05-24T20:42:35.890Z,100.00
2023-05-24T20:45:04.675Z,100.00
2023-05-24T20:47:32.952Z,100.00
2023-05-24T20:50:01.376Z,100.00
2023-05-24T20:52:29.575Z,100.00
2023-05-24T20:54:57.918Z,100.00
2023-05-24T20:57:26.118Z,100.00
2023-05-24T20:59:54.562Z,100.00
2023-05-24T21:02:22.916Z,100.00
2023-05-24T21:04:51.722Z,100.00
2023-05-24T21:07:19.639Z,100.00
2023-05-24T21:09:47.603Z,100.00
2023-05-24T21:12:16.032Z,100.00
2023-05-24T21:14:44.988Z,100.00
2023-05-24T21:17:12.815Z,100.00
2023-05-24T21:19:42.047Z,100.00
2023-05-24T21:22:10.237Z,100.00
2023-05-24T21:24:38.689Z,100.00
2023-05-24T21:27:08.239Z,100.00
2023-05-24T21:29:38.694Z,100.00
2023-05-24T21:32:06.662Z,100.00
2023-05-24T21:34:36.254Z,100.00
2023-05-24T21:37:05.259Z,100.00
2023-05-24T21:39:33.658Z,100.00
2023-05-24T21:42:02.329Z,100.00
2023-05-24T21:44:30.893Z,100.00
2023-05-24T21:46:58.895Z,100.00
2023-05-24T21:49:27.795Z,100.00
2023-05-24T21:51:55.955Z,100.00
2023-05-24T21:54:24.206Z,100.00
2023-05-24T21:56:51.888Z,100.00
2023-05-24T21:59:21.579Z,100.00
2023-05-24T22:01:49.933Z,100.00
2023-05-24T22:04:18.327Z,100.00
2023-05-24T22:06:46.602Z,100.00
2023-05-24T22:09:15.411Z,100.00
2023-05-24T22:11:43.784Z,100.00
2023-05-24T22:14:12.577Z,100.00
2023-05-24T22:16:40.603Z,100.00
2023-05-24T22:19:16.929Z,100.00
2023-05-24T22:21:52.610Z,100.00
2023-05-24T22:24:21.442Z,100.00
2023-05-24T22:26:50.097Z,100.00
2023-05-24T22:29:20.520Z,100.00
2023-05-24T22:31:48.495Z,100.00
2023-05-24T22:34:26.991Z,100.00
2023-05-24T22:36:55.715Z,100.00
2023-05-24T22:39:24.670Z,100.00
2023-05-24T22:41:53.131Z,100.00
2023-05-24T22:44:21.744Z,100.00
2023-05-24T22:46:50.288Z,100.00
2023-05-24T22:49:21.188Z,100.00
2023-05-24T22:51:51.140Z,100.00
2023-05-24T22:54:20.420Z,100.00
2023-05-24T22:56:48.270Z,100.00
2023-05-24T22:59:16.513Z,100.00
2023-05-24T23:01:45.521Z,100.00
2023-05-24T23:04:21.205Z,100.00
2023-05-24T23:06:53.155Z,100.00
2023-05-24T23:09:42.051Z,100.00
2023-05-24T23:12:11.869Z,100.00
2023-05-24T23:14:42.427Z,100.00
2023-05-24T23:17:13.775Z,100.00
2023-05-24T23:19:43.618Z,100.00
2023-05-24T23:22:24.135Z,100.00
2023-05-24T23:24:53.059Z,100.00
2023-05-24T23:27:21.666Z,100.00
2023-05-24T23:29:50.288Z,100.00
2023-05-24T23:32:18.147Z,100.00
2023-05-24T23:34:46.698Z,100.00
2023-05-24T23:37:14.544Z,100.00
2023-05-24T23:39:43.088Z,100.00
2023-05-24T23:42:11.101Z,100.00
2023-05-24T23:44:39.555Z,100.00
2023-05-24T23:47:08.063Z,100.00
2023-05-24T23:49:36.921Z,100.00
2023-05-24T23:52:04.992Z,100.00
2023-05-24T23:54:33.287Z,100.00
2023-05-24T23:57:01.222Z,100.00
2023-05-24T23:59:29.687Z,100.00
